createdAt,value
2024-02-07T00:02:12.595Z,8.57
2024-02-07T00:04:39.695Z,8.13
2024-02-07T00:07:06.722Z,6.25
2024-02-07T00:09:33.649Z,5.45
2024-02-07T00:12:00.516Z,4.28
2024-02-07T00:14:27.445Z,4.07
2024-02-07T00:16:57.181Z,4.00
2024-02-07T00:19:24.454Z,6.35
2024-02-07T00:21:51.619Z,6.10
2024-02-07T00:24:18.554Z,7.97
2024-02-07T00:26:45.442Z,5.30
2024-02-07T00:29:12.533Z,4.38
2024-02-07T00:31:40.239Z,3.65
2024-02-07T00:34:07.235Z,4.75
2024-02-07T00:36:34.215Z,4.65
2024-02-07T00:39:01.036Z,4.80
2024-02-07T00:41:28.046Z,4.00
2024-02-07T00:43:55.067Z,3.78
2024-02-07T00:46:22.127Z,4.28
2024-02-07T00:48:49.269Z,4.55
2024-02-07T00:51:16.190Z,3.80
2024-02-07T00:53:43.273Z,4.13
2024-02-07T00:56:10.332Z,4.72
2024-02-07T00:58:37.271Z,4.72
2024-02-07T01:01:05.055Z,4.00
2024-02-07T01:03:32.996Z,4.18
2024-02-07T01:06:00.373Z,4.38
2024-02-07T01:08:27.333Z,4.47
2024-02-07T01:10:54.480Z,3.78
2024-02-07T01:13:21.519Z,4.68
2024-02-07T01:15:48.644Z,4.35
2024-02-07T01:18:15.833Z,4.47
2024-02-07T01:20:42.923Z,4.30
2024-02-07T01:23:10.307Z,4.10
2024-02-07T01:25:37.213Z,4.45
2024-02-07T01:28:04.445Z,4.85
2024-02-07T01:30:31.513Z,4.85
2024-02-07T01:32:58.426Z,4.32
2024-02-07T01:35:27.831Z,4.88
2024-02-07T01:37:54.753Z,4.10
2024-02-07T01:40:22.826Z,4.78
2024-02-07T01:42:50.167Z,4.72
2024-02-07T01:45:32.760Z,4.43
2024-02-07T01:47:59.777Z,4.78
2024-02-07T01:50:26.823Z,4.10
2024-02-07T01:52:55.494Z,4.03
2024-02-07T01:55:22.638Z,4.40
2024-02-07T01:57:52.341Z,5.05
2024-02-07T02:00:19.255Z,4.90
2024-02-07T02:02:46.248Z,4.95
2024-02-07T02:05:13.110Z,5.03
2024-02-07T02:07:40.417Z,5.10
2024-02-07T02:10:07.519Z,4.32
2024-02-07T02:12:34.691Z,5.38
2024-02-07T02:15:01.579Z,4.18
2024-02-07T02:17:28.452Z,4.38
2024-02-07T02:19:55.708Z,5.20
2024-02-07T02:22:32.117Z,4.00
2024-02-07T02:25:08.274Z,4.22
2024-02-07T02:28:18.971Z,4.53
2024-02-07T02:30:52.341Z,4.73
2024-02-07T02:33:20.117Z,4.47
2024-02-07T02:35:50.379Z,4.88
2024-02-07T02:38:19.642Z,4.47
2024-02-07T02:40:48.365Z,5.43
2024-02-07T02:43:15.536Z,5.07
2024-02-07T02:45:42.920Z,4.47
2024-02-07T02:48:12.618Z,5.82
2024-02-07T02:53:08.114Z,4.68
2024-02-07T02:55:35.311Z,5.28
2024-02-07T02:58:02.344Z,4.85
2024-02-07T03:00:29.524Z,5.50
2024-02-07T03:02:59.398Z,5.45
2024-02-07T03:05:46.756Z,4.82
2024-02-07T03:08:22.674Z,4.72
2024-02-07T03:10:53.061Z,5.00
2024-02-07T03:13:20.110Z,5.05
2024-02-07T03:15:46.989Z,6.07
2024-02-07T03:18:14.312Z,5.68
2024-02-07T03:20:42.335Z,4.72
2024-02-07T03:23:09.645Z,4.65
2024-02-07T03:25:38.089Z,5.80
2024-02-07T03:28:06.157Z,4.75
2024-02-07T03:30:33.273Z,5.05
2024-02-07T03:33:00.242Z,4.70
2024-02-07T03:35:27.818Z,4.50
2024-02-07T03:37:56.486Z,4.22
2024-02-07T03:40:23.578Z,4.22
2024-02-07T03:42:51.397Z,4.28
2024-02-07T03:45:18.347Z,3.85
2024-02-07T03:47:45.467Z,3.85
2024-02-07T03:50:13.177Z,4.20
2024-02-07T03:52:40.751Z,3.95
2024-02-07T03:55:07.925Z,4.50
2024-02-07T03:57:38.531Z,4.03
2024-02-07T04:00:15.189Z,4.00
2024-02-07T04:02:44.557Z,4.40
2024-02-07T04:05:12.568Z,4.32
2024-02-07T04:07:40.066Z,5.10
2024-02-07T04:10:10.848Z,4.65
2024-02-07T04:12:41.090Z,4.53
2024-02-07T04:15:26.969Z,5.25
2024-02-07T04:18:13.729Z,4.80
2024-02-07T04:21:09.028Z,5.07
2024-02-07T04:23:54.658Z,6.05
2024-02-07T04:26:42.945Z,6.75
2024-02-07T04:29:28.507Z,6.47
2024-02-07T04:32:14.054Z,6.43
2024-02-07T04:34:59.660Z,6.32
2024-02-07T04:37:45.882Z,6.65
2024-02-07T04:40:31.478Z,5.95
2024-02-07T04:43:16.790Z,5.68
2024-02-07T04:46:02.423Z,7.57
2024-02-07T04:48:48.483Z,7.03
2024-02-07T04:51:34.008Z,7.07
2024-02-07T04:54:19.730Z,5.88
2024-02-07T04:57:05.186Z,6.30
2024-02-07T04:59:50.883Z,6.72
2024-02-07T05:02:36.525Z,6.80
2024-02-07T05:05:22.174Z,6.50
2024-02-07T05:08:07.877Z,5.75
2024-02-07T05:10:53.565Z,5.78
2024-02-07T05:13:39.422Z,5.93
2024-02-07T05:16:11.629Z,5.85
2024-02-07T05:18:38.694Z,5.85
2024-02-07T05:21:05.776Z,5.20
2024-02-07T05:23:32.629Z,6.50
2024-02-07T05:26:00.017Z,6.10
2024-02-07T05:28:26.927Z,5.95
2024-02-07T05:30:53.780Z,5.90
2024-02-07T05:33:20.865Z,5.78
2024-02-07T05:35:47.838Z,6.80
2024-02-07T05:38:14.774Z,6.50
2024-02-07T05:40:41.673Z,7.18
2024-02-07T05:43:08.603Z,5.68
2024-02-07T05:45:35.576Z,5.45
2024-02-07T05:48:02.765Z,4.32
2024-02-07T05:50:30.447Z,4.95
2024-02-07T05:52:57.320Z,5.53
2024-02-07T05:55:24.310Z,5.57
2024-02-07T05:57:51.327Z,5.03
2024-02-07T06:00:18.538Z,5.78
2024-02-07T06:02:45.605Z,4.68
2024-02-07T06:05:12.829Z,5.32
2024-02-07T06:07:40.094Z,5.13
2024-02-07T06:10:07.674Z,4.97
2024-02-07T06:12:35.392Z,6.50
2024-02-07T06:15:03.667Z,5.95
2024-02-07T06:17:30.913Z,7.20
2024-02-07T06:19:58.029Z,6.05
2024-02-07T06:22:25.201Z,7.10
2024-02-07T06:24:52.154Z,6.45
2024-02-07T06:27:19.029Z,6.53
2024-02-07T06:29:46.008Z,5.50
2024-02-07T06:32:12.935Z,6.80
2024-02-07T06:34:40.077Z,6.78
2024-02-07T06:37:07.030Z,7.05
2024-02-07T06:39:34.158Z,6.85
2024-02-07T06:42:01.090Z,5.68
2024-02-07T06:44:28.074Z,6.10
2024-02-07T06:46:55.047Z,6.38
2024-02-07T06:49:22.113Z,5.93
2024-02-07T06:51:49.665Z,5.82
2024-02-07T06:54:16.670Z,4.70
2024-02-07T06:56:43.894Z,6.13
2024-02-07T06:59:13.034Z,5.80
2024-02-07T07:01:41.253Z,5.63
2024-02-07T07:04:08.200Z,5.05
2024-02-07T07:06:35.281Z,5.32
2024-02-07T07:09:02.514Z,5.63
2024-02-07T07:11:29.516Z,6.03
2024-02-07T07:14:00.209Z,5.88
2024-02-07T07:16:29.678Z,5.95
2024-02-07T07:18:58.672Z,5.70
2024-02-07T07:21:25.684Z,6.63
2024-02-07T07:23:52.956Z,4.13
2024-02-07T07:26:19.909Z,6.53
2024-02-07T07:28:46.865Z,7.15
2024-02-07T07:31:13.849Z,7.22
2024-02-07T07:33:40.728Z,4.22
2024-02-07T07:36:08.120Z,8.20
2024-02-07T07:38:35.034Z,7.47
2024-02-07T07:41:03.109Z,8.43
2024-02-07T07:43:30.386Z,8.27
2024-02-07T07:45:57.380Z,9.15
2024-02-07T07:48:24.915Z,9.02
2024-02-07T07:50:52.305Z,8.57
2024-02-07T07:53:19.242Z,6.38
2024-02-07T07:55:46.266Z,7.82
2024-02-07T07:58:13.349Z,8.13
2024-02-07T08:00:40.426Z,5.93
2024-02-07T08:03:07.320Z,6.05
2024-02-07T08:05:36.362Z,10.25
2024-02-07T08:08:05.276Z,9.13
2024-02-07T08:10:32.762Z,12.05
2024-02-07T08:12:59.961Z,10.43
2024-02-07T08:15:26.899Z,9.23
2024-02-07T08:17:53.804Z,8.00
2024-02-07T08:20:23.568Z,6.18
2024-02-07T08:22:51.023Z,12.27
2024-02-07T08:25:18.052Z,3.75
2024-02-07T08:27:45.005Z,7.38
2024-02-07T08:30:12.439Z,7.43
2024-02-07T08:32:39.935Z,5.03
2024-02-07T08:35:07.209Z,8.15
2024-02-07T08:37:34.213Z,14.05
2024-02-07T08:40:01.215Z,7.97
2024-02-07T08:42:28.320Z,7.72
2024-02-07T08:44:55.513Z,9.05
2024-02-07T08:47:22.726Z,8.48
2024-02-07T08:49:49.921Z,8.45
2024-02-07T08:52:17.386Z,8.43
2024-02-07T08:54:44.403Z,5.40
2024-02-07T08:57:11.847Z,4.65
2024-02-07T08:59:38.728Z,8.70
2024-02-07T09:02:07.807Z,8.00
2024-02-07T09:04:35.212Z,6.60
2024-02-07T09:07:02.354Z,6.47
2024-02-07T09:09:29.460Z,5.60
2024-02-07T09:11:56.335Z,3.45
2024-02-07T09:14:23.225Z,2.97
2024-02-07T09:16:50.194Z,5.90
2024-02-07T09:19:17.359Z,6.72
2024-02-07T09:21:45.221Z,7.20
2024-02-07T09:24:12.089Z,4.82
2024-02-07T09:26:39.645Z,3.88
2024-02-07T09:29:06.580Z,3.60
2024-02-07T09:31:33.491Z,8.05
2024-02-07T09:34:00.522Z,3.72
2024-02-07T09:36:28.263Z,7.00
2024-02-07T09:38:55.273Z,3.95
2024-02-07T09:41:22.862Z,2.80
2024-02-07T09:43:49.778Z,3.80
2024-02-07T09:46:17.052Z,4.72
2024-02-07T09:48:44.410Z,7.50
2024-02-07T09:51:16.136Z,7.18
2024-02-07T09:53:44.283Z,8.70
2024-02-07T09:56:11.319Z,9.93
2024-02-07T09:58:38.304Z,5.22
2024-02-07T10:01:08.133Z,3.58
2024-02-07T10:03:35.337Z,2.42
2024-02-07T10:06:02.362Z,3.00
2024-02-07T10:08:29.463Z,2.53
2024-02-07T10:10:56.689Z,2.70
2024-02-07T10:13:23.769Z,3.28
2024-02-07T10:15:52.480Z,4.63
2024-02-07T10:18:19.601Z,2.83
2024-02-07T10:20:56.294Z,4.35
2024-02-07T10:23:23.564Z,6.75
2024-02-07T10:25:51.734Z,8.18
2024-02-07T10:28:19.269Z,5.40
2024-02-07T10:31:06.812Z,2.88
2024-02-07T10:33:42.284Z,8.90
2024-02-07T10:36:12.011Z,2.75
2024-02-07T10:38:39.736Z,8.38
2024-02-07T10:41:07.262Z,5.20
2024-02-07T10:43:34.780Z,3.42
2024-02-07T10:46:02.437Z,6.55
2024-02-07T10:48:30.395Z,15.02
2024-02-07T10:50:58.542Z,14.52
2024-02-07T10:53:28.433Z,15.15
2024-02-07T10:55:58.068Z,9.35
2024-02-07T10:58:25.931Z,16.30
2024-02-07T11:00:53.377Z,3.72
2024-02-07T11:03:24.428Z,4.97
2024-02-07T11:05:51.665Z,9.57
2024-02-07T11:08:18.841Z,12.77
2024-02-07T11:10:46.165Z,7.63
2024-02-07T11:13:13.674Z,12.50
2024-02-07T11:15:40.807Z,11.48
2024-02-07T11:18:09.878Z,8.80
2024-02-07T11:20:37.984Z,11.68
2024-02-07T11:23:11.242Z,9.55
2024-02-07T11:25:38.213Z,19.92
2024-02-07T11:28:05.920Z,16.08
2024-02-07T11:30:33.040Z,17.50
2024-02-07T11:33:00.008Z,9.45
2024-02-07T11:35:27.348Z,6.65
2024-02-07T11:37:54.559Z,12.30
2024-02-07T11:40:25.249Z,10.52
2024-02-07T11:42:59.993Z,16.70
2024-02-07T11:45:27.507Z,12.57
2024-02-07T11:47:55.615Z,8.65
2024-02-07T11:50:22.881Z,7.85
2024-02-07T11:52:52.651Z,7.25
2024-02-07T11:55:19.636Z,9.95
2024-02-07T11:57:53.602Z,14.32
2024-02-07T12:00:22.437Z,8.05
2024-02-07T12:02:50.150Z,18.88
2024-02-07T12:05:17.877Z,7.70
2024-02-07T12:07:45.104Z,17.63
2024-02-07T12:10:12.259Z,10.25
2024-02-07T12:12:39.313Z,9.63
2024-02-07T12:15:06.732Z,10.63
2024-02-07T12:17:35.825Z,21.05
2024-02-07T12:20:03.808Z,11.82
2024-02-07T12:22:34.942Z,13.77
2024-02-07T12:25:04.048Z,16.30
2024-02-07T12:27:31.450Z,21.63
2024-02-07T12:29:58.829Z,13.30
2024-02-07T12:32:25.890Z,22.60
2024-02-07T12:34:56.945Z,29.13
2024-02-07T12:37:24.050Z,16.85
2024-02-07T12:39:51.824Z,16.88
2024-02-07T12:42:22.948Z,10.57
2024-02-07T12:44:52.789Z,9.40
2024-02-07T12:47:22.376Z,23.48
2024-02-07T12:49:52.943Z,10.68
2024-02-07T12:52:21.370Z,13.88
2024-02-07T12:54:48.634Z,15.07
2024-02-07T12:57:25.501Z,9.32
2024-02-07T12:59:52.996Z,11.77
2024-02-07T13:02:20.106Z,15.32
2024-02-07T13:04:47.447Z,11.52
2024-02-07T13:07:14.551Z,24.80
2024-02-07T13:09:41.766Z,23.30
2024-02-07T13:12:18.581Z,16.67
2024-02-07T13:14:51.516Z,12.77
2024-02-07T13:17:18.395Z,4.20
2024-02-07T13:19:45.350Z,13.77
2024-02-07T13:22:15.587Z,24.15
2024-02-07T13:24:43.193Z,14.30
2024-02-07T13:27:10.245Z,15.13
2024-02-07T13:29:40.962Z,9.73
2024-02-07T13:32:11.956Z,17.85
2024-02-07T13:34:39.452Z,12.32
2024-02-07T13:37:06.565Z,18.85
2024-02-07T13:39:33.611Z,19.05
2024-02-07T13:42:00.680Z,11.02
2024-02-07T13:44:27.557Z,15.73
2024-02-07T13:46:54.801Z,11.13
2024-02-07T13:49:23.792Z,10.35
2024-02-07T13:51:50.974Z,8.95
2024-02-07T13:54:18.032Z,11.18
2024-02-07T13:56:44.931Z,21.23
2024-02-07T13:59:12.249Z,19.33
2024-02-07T14:01:40.181Z,11.35
2024-02-07T14:04:07.201Z,7.90
2024-02-07T14:06:34.436Z,16.25
2024-02-07T14:09:01.449Z,17.42
2024-02-07T14:11:28.379Z,15.82
2024-02-07T14:13:55.498Z,18.92
2024-02-07T14:16:22.557Z,14.68
2024-02-07T14:18:49.567Z,16.98
2024-02-07T14:21:16.685Z,12.38
2024-02-07T14:23:43.625Z,23.45
2024-02-07T14:26:10.709Z,13.82
2024-02-07T14:28:37.673Z,20.88
2024-02-07T14:31:04.777Z,25.45
2024-02-07T14:33:31.834Z,15.57
2024-02-07T14:35:58.989Z,6.35
2024-02-07T14:38:29.345Z,21.63
2024-02-07T14:40:56.693Z,26.43
2024-02-07T14:43:23.806Z,18.27
2024-02-07T14:45:54.112Z,20.50
2024-02-07T14:48:21.464Z,12.45
2024-02-07T14:50:48.711Z,14.93
2024-02-07T14:53:15.818Z,21.95
2024-02-07T14:55:45.034Z,21.45
2024-02-07T14:58:12.115Z,9.18
2024-02-07T15:00:40.005Z,12.98
2024-02-07T15:03:12.521Z,19.15
2024-02-07T15:05:39.769Z,13.00
2024-02-07T15:08:10.158Z,18.88
2024-02-07T15:10:37.583Z,19.73
2024-02-07T15:13:04.975Z,4.95
2024-02-07T15:15:32.082Z,11.55
2024-02-07T15:17:59.164Z,8.88
2024-02-07T15:20:26.350Z,5.32
2024-02-07T15:22:53.421Z,16.40
2024-02-07T15:25:20.565Z,5.60
2024-02-07T15:27:47.569Z,15.57
2024-02-07T15:30:14.959Z,22.63
2024-02-07T15:32:42.235Z,16.90
2024-02-07T15:35:10.133Z,16.05
2024-02-07T15:37:37.263Z,20.95
2024-02-07T15:40:04.567Z,12.95
2024-02-07T15:42:32.033Z,23.17
2024-02-07T15:44:59.070Z,17.05
2024-02-07T15:47:26.230Z,17.85
2024-02-07T15:49:53.378Z,19.58
2024-02-07T15:52:20.482Z,8.15
2024-02-07T15:54:48.849Z,8.10
2024-02-07T15:57:16.060Z,18.52
2024-02-07T15:59:43.266Z,8.70
2024-02-07T16:02:10.418Z,9.43
2024-02-07T16:04:37.481Z,20.75
2024-02-07T16:07:04.828Z,13.50
2024-02-07T16:09:31.953Z,23.30
2024-02-07T16:11:58.950Z,12.30
2024-02-07T16:14:25.930Z,11.50
2024-02-07T16:16:52.957Z,16.23
2024-02-07T16:19:20.040Z,21.33
2024-02-07T16:21:47.094Z,13.20
2024-02-07T16:24:14.048Z,21.73
2024-02-07T16:26:41.157Z,12.32
2024-02-07T16:29:08.229Z,10.10
2024-02-07T16:31:35.315Z,11.30
2024-02-07T16:34:02.518Z,9.77
2024-02-07T16:36:29.934Z,6.13
2024-02-07T16:38:57.001Z,11.27
2024-02-07T16:41:24.033Z,11.88
2024-02-07T16:43:52.549Z,9.65
2024-02-07T16:46:19.633Z,9.75
2024-02-07T16:48:46.721Z,7.88
2024-02-07T16:51:13.809Z,5.68
2024-02-07T16:53:42.258Z,13.70
2024-02-07T16:56:09.481Z,11.70
2024-02-07T16:58:36.592Z,8.27
2024-02-07T17:01:04.013Z,16.73
2024-02-07T17:03:31.881Z,8.32
2024-02-07T17:05:59.265Z,7.75
2024-02-07T17:08:30.615Z,6.95
2024-02-07T17:13:25.118Z,13.85
2024-02-07T17:15:52.102Z,11.25
2024-02-07T17:18:19.268Z,9.07
2024-02-07T17:20:51.403Z,12.60
2024-02-07T17:23:19.103Z,5.45
2024-02-07T17:25:46.641Z,6.90
2024-02-07T17:28:14.940Z,7.63
2024-02-07T17:30:43.006Z,5.22
2024-02-07T17:33:10.186Z,4.03
2024-02-07T17:35:37.334Z,8.95
2024-02-07T17:38:04.759Z,12.13
2024-02-07T17:40:31.862Z,13.25
2024-02-07T17:42:58.886Z,10.82
2024-02-07T17:45:26.853Z,11.13
2024-02-07T17:47:53.920Z,5.93
2024-02-07T17:50:29.031Z,7.75
2024-02-07T17:52:56.656Z,8.63
2024-02-07T17:55:23.904Z,11.43
2024-02-07T17:57:51.687Z,11.43
2024-02-07T18:00:19.114Z,12.07
2024-02-07T18:02:47.322Z,6.80
2024-02-07T18:05:14.420Z,5.53
2024-02-07T18:07:41.706Z,8.93
2024-02-07T18:10:09.107Z,7.50
2024-02-07T18:12:36.221Z,8.57
2024-02-07T18:15:03.241Z,11.73
2024-02-07T18:17:30.414Z,8.63
2024-02-07T18:19:57.638Z,12.90
2024-02-07T18:22:24.619Z,13.38
2024-02-07T18:24:51.663Z,9.68
2024-02-07T18:27:18.582Z,7.53
2024-02-07T18:29:45.510Z,12.45
2024-02-07T18:32:13.456Z,4.85
2024-02-07T18:34:40.932Z,6.90
2024-02-07T18:37:09.502Z,4.72
2024-02-07T18:39:36.730Z,5.85
2024-02-07T18:42:03.946Z,5.30
2024-02-07T18:44:31.111Z,6.45
2024-02-07T18:46:58.266Z,4.43
2024-02-07T18:49:25.417Z,10.80
2024-02-07T18:51:52.635Z,6.88
2024-02-07T18:54:22.617Z,5.90
2024-02-07T18:56:49.576Z,12.95
2024-02-07T18:59:16.546Z,5.43
2024-02-07T19:01:43.914Z,6.13
2024-02-07T19:04:11.066Z,5.78
2024-02-07T19:06:38.096Z,12.63
2024-02-07T19:09:05.375Z,9.38
2024-02-07T19:11:32.384Z,9.30
2024-02-07T19:13:59.585Z,5.28
2024-02-07T19:16:28.597Z,11.80
2024-02-07T19:18:55.667Z,7.40
2024-02-07T19:21:24.514Z,7.25
2024-02-07T19:23:51.447Z,4.65
2024-02-07T19:26:18.465Z,4.50
2024-02-07T19:28:45.538Z,5.05
2024-02-07T19:31:12.583Z,5.90
2024-02-07T19:33:39.733Z,8.75
2024-02-07T19:36:07.112Z,6.03
2024-02-07T19:38:34.185Z,5.68
2024-02-07T19:41:01.362Z,5.10
2024-02-07T19:43:28.364Z,4.32
2024-02-07T19:45:56.436Z,4.22
2024-02-07T19:48:23.448Z,3.90
2024-02-07T19:50:50.469Z,3.67
2024-02-07T19:53:17.461Z,4.10
2024-02-07T19:55:44.490Z,3.60
2024-02-07T19:58:15.373Z,3.80
2024-02-07T20:00:42.781Z,12.90
2024-02-07T20:03:10.038Z,9.50
2024-02-07T20:05:37.424Z,8.73
2024-02-07T20:08:05.426Z,9.10
2024-02-07T20:10:32.688Z,4.45
2024-02-07T20:12:59.864Z,4.00
2024-02-07T20:15:26.867Z,3.97
2024-02-07T20:17:54.218Z,3.92
2024-02-07T20:20:21.537Z,4.40
2024-02-07T20:22:48.643Z,3.53
2024-02-07T20:25:16.517Z,4.75
2024-02-07T20:27:43.415Z,4.15
2024-02-07T20:30:10.591Z,4.75
2024-02-07T20:32:37.900Z,4.15
2024-02-07T20:35:05.300Z,3.63
2024-02-07T20:37:32.493Z,3.97
2024-02-07T20:39:59.434Z,4.20
2024-02-07T20:42:29.882Z,3.80
2024-02-07T20:44:58.420Z,4.10
2024-02-07T20:47:25.508Z,3.67
2024-02-07T20:49:52.730Z,4.10
2024-02-07T20:52:20.180Z,4.07
2024-02-07T20:54:50.103Z,4.80
2024-02-07T20:57:17.537Z,4.13
2024-02-07T20:59:44.824Z,3.90
2024-02-07T21:02:11.869Z,3.35
2024-02-07T21:04:39.457Z,3.33
2024-02-07T21:07:06.716Z,3.00
2024-02-07T21:09:34.041Z,3.78
2024-02-07T21:12:01.077Z,3.60
2024-02-07T21:14:32.804Z,3.42
2024-02-07T21:16:59.788Z,3.90
2024-02-07T21:19:30.171Z,3.63
2024-02-07T21:21:57.665Z,3.80
2024-02-07T21:24:24.614Z,3.35
2024-02-07T21:26:51.511Z,4.32
2024-02-07T21:29:18.673Z,3.85
2024-02-07T21:31:45.749Z,3.63
2024-02-07T21:34:12.803Z,4.13
2024-02-07T21:36:39.722Z,3.80
2024-02-07T21:39:06.547Z,3.92
2024-02-07T21:41:33.554Z,3.92
2024-02-07T21:44:00.836Z,4.00
2024-02-07T21:46:29.621Z,3.25
2024-02-07T21:48:56.626Z,3.50
2024-02-07T21:51:23.511Z,3.80
2024-02-07T21:53:50.448Z,3.72
2024-02-07T21:56:17.506Z,4.28
2024-02-07T21:58:44.529Z,3.63
2024-02-07T22:01:11.575Z,3.78
2024-02-07T22:03:38.595Z,4.00
2024-02-07T22:06:05.620Z,4.10
2024-02-07T22:08:32.726Z,3.80
2024-02-07T22:10:59.827Z,3.72
2024-02-07T22:13:26.731Z,3.95
2024-02-07T22:15:53.743Z,3.53
2024-02-07T22:18:20.691Z,4.20
2024-02-07T22:20:47.646Z,3.55
2024-02-07T22:23:14.669Z,3.58
2024-02-07T22:25:41.659Z,3.72
2024-02-07T22:28:08.684Z,3.65
2024-02-07T22:30:35.515Z,3.70
2024-02-07T22:33:04.762Z,3.80
2024-02-07T22:35:31.734Z,3.90
2024-02-07T22:37:58.609Z,4.40
2024-02-07T22:40:25.619Z,3.88
2024-02-07T22:42:52.560Z,3.55
2024-02-07T22:45:26.431Z,3.60
2024-02-07T22:47:54.047Z,4.15
2024-02-07T22:50:21.152Z,3.88
2024-02-07T22:52:48.072Z,4.35
2024-02-07T22:55:15.008Z,3.65
2024-02-07T22:57:41.972Z,3.72
2024-02-07T23:00:22.706Z,3.67
2024-02-07T23:02:49.767Z,3.40
2024-02-07T23:05:16.879Z,3.72
2024-02-07T23:07:43.889Z,4.00
2024-02-07T23:10:10.779Z,3.70
2024-02-07T23:12:38.199Z,3.85
2024-02-07T23:15:05.684Z,3.97
2024-02-07T23:17:33.816Z,3.72
2024-02-07T23:20:00.958Z,4.88
2024-02-07T23:22:27.942Z,4.45
2024-02-07T23:24:54.830Z,4.25
2024-02-07T23:27:21.833Z,4.03
2024-02-07T23:29:48.755Z,4.05
2024-02-07T23:32:15.756Z,3.58
2024-02-07T23:34:42.781Z,3.50
2024-02-07T23:37:10.894Z,3.67
2024-02-07T23:39:37.934Z,3.03
2024-02-07T23:42:05.168Z,3.25
2024-02-07T23:44:35.020Z,3.65
2024-02-07T23:47:02.497Z,3.47
2024-02-07T23:49:29.789Z,3.75
2024-02-07T23:51:56.802Z,3.75
2024-02-07T23:54:23.839Z,4.03
2024-02-07T23:56:50.878Z,3.33
2024-02-07T23:59:17.817Z,2.60
